createdAt,value
2022-11-03T00:00:01.272Z,10.3
2022-11-03T00:01:01.849Z,10.4
2022-11-03T00:02:01.570Z,10.3
2022-11-03T00:03:01.055Z,10.4
2022-11-03T00:04:01.590Z,10.4
2022-11-03T00:05:01.162Z,10.3
2022-11-03T00:06:01.761Z,10.3
2022-11-03T00:07:01.335Z,10.3
2022-11-03T00:08:02.001Z,10.3
2022-11-03T00:09:01.625Z,10.3
2022-11-03T00:10:01.219Z,10.3
2022-11-03T00:11:01.734Z,10.3
2022-11-03T00:12:01.308Z,10.3
2022-11-03T00:13:01.885Z,10.3
2022-11-03T00:14:01.459Z,10.3
2022-11-03T00:15:01.033Z,10.3
2022-11-03T00:16:01.617Z,10.4
2022-11-03T00:17:01.204Z,10.4
2022-11-03T00:18:01.769Z,10.4
2022-11-03T00:19:01.341Z,10.4
2022-11-03T00:20:01.916Z,10.4
2022-11-03T00:21:01.502Z,10.4
2022-11-03T00:22:01.094Z,10.4
2022-11-03T00:23:01.661Z,10.4
2022-11-03T00:24:01.260Z,10.4
2022-11-03T00:25:01.824Z,10.4
2022-11-03T00:26:01.403Z,10.4
2022-11-03T00:27:00.996Z,10.4
2022-11-03T00:29:01.164Z,10.4
2022-11-03T00:30:01.726Z,10.3
2022-11-03T00:31:01.312Z,10.3
2022-11-03T00:32:01.899Z,10.3
2022-11-03T00:33:01.474Z,10.3
2022-11-03T00:34:01.048Z,10.4
2022-11-03T00:35:01.624Z,10.3
2022-11-03T00:36:01.198Z,10.3
2022-11-03T00:37:01.790Z,10.3
2022-11-03T00:38:01.378Z,10.3
2022-11-03T00:39:01.937Z,10.4
2022-11-03T00:40:01.540Z,10.3
2022-11-03T00:41:01.123Z,10.3
2022-11-03T00:42:01.714Z,10.3
2022-11-03T00:43:01.290Z,10.4
2022-11-03T00:44:01.865Z,10.4
2022-11-03T00:45:01.456Z,10.4
2022-11-03T00:46:01.011Z,10.4
2022-11-03T00:47:01.583Z,10.4
2022-11-03T00:48:01.175Z,10.4
2022-11-03T00:49:01.741Z,10.4
2022-11-03T00:50:01.316Z,10.5
2022-11-03T00:51:01.889Z,10.5
2022-11-03T00:52:01.465Z,10.4
2022-11-03T00:53:01.052Z,10.4
2022-11-03T00:54:01.640Z,10.5
2022-11-03T00:55:01.215Z,10.5
2022-11-03T00:56:01.821Z,10.5
2022-11-03T00:57:01.394Z,10.5
2022-11-03T00:58:02.004Z,10.5
2022-11-03T00:59:01.577Z,10.7
2022-11-03T01:00:01.157Z,10.7
2022-11-03T01:01:01.836Z,10.7
2022-11-03T01:02:01.530Z,10.6
2022-11-03T01:03:01.985Z,10.8
2022-11-03T01:04:01.560Z,10.7
2022-11-03T01:05:01.153Z,10.7
2022-11-03T01:06:01.713Z,10.7
2022-11-03T01:07:01.307Z,10.8
2022-11-03T01:08:01.881Z,10.8
2022-11-03T01:09:01.454Z,10.8
2022-11-03T01:10:01.083Z,10.8
2022-11-03T01:11:01.616Z,10.8
2022-11-03T01:12:01.220Z,10.8
2022-11-03T01:13:01.793Z,10.8
2022-11-03T01:14:01.368Z,10.9
2022-11-03T01:15:01.960Z,10.8
2022-11-03T01:16:01.539Z,10.8
2022-11-03T01:17:01.116Z,10.8
2022-11-03T01:18:01.686Z,10.8
2022-11-03T01:19:01.259Z,10.8
2022-11-03T01:20:01.852Z,10.8
2022-11-03T01:21:01.428Z,10.8
2022-11-03T01:22:01.003Z,10.8
2022-11-03T01:23:01.591Z,10.8
2022-11-03T01:24:01.167Z,10.8
2022-11-03T01:25:01.741Z,10.8
2022-11-03T01:26:01.317Z,10.8
2022-11-03T01:27:01.912Z,10.8
2022-11-03T01:28:01.574Z,10.8
2022-11-03T01:29:01.060Z,10.9
2022-11-03T01:30:01.634Z,10.9
2022-11-03T01:31:01.210Z,10.8
2022-11-03T01:32:01.797Z,10.8
2022-11-03T01:33:01.373Z,10.8
2022-11-03T01:34:01.945Z,10.8
2022-11-03T01:35:01.532Z,10.8
2022-11-03T01:36:01.110Z,10.8
2022-11-03T01:37:01.700Z,10.9
2022-11-03T01:38:01.273Z,10.9
2022-11-03T01:39:01.857Z,10.9
2022-11-03T01:40:01.434Z,10.9
2022-11-03T01:41:01.007Z,10.9
2022-11-03T01:42:01.602Z,10.9
2022-11-03T01:43:01.175Z,10.9
2022-11-03T01:44:01.773Z,10.9
2022-11-03T01:45:01.376Z,10.9
2022-11-03T01:46:01.923Z,10.9
2022-11-03T01:47:01.496Z,10.9
2022-11-03T01:48:01.071Z,10.9
2022-11-03T01:49:01.647Z,10.9
2022-11-03T01:50:01.237Z,10.9
2022-11-03T01:51:01.899Z,10.9
2022-11-03T01:52:01.450Z,10.8
2022-11-03T01:53:01.039Z,10.8
2022-11-03T01:54:01.608Z,10.8
2022-11-03T01:55:01.204Z,10.8
2022-11-03T01:56:01.758Z,10.8
2022-11-03T01:57:01.334Z,10.8
2022-11-03T01:58:01.911Z,10.8
2022-11-03T01:59:01.485Z,10.8
2022-11-03T02:00:01.113Z,10.8
2022-11-03T02:01:01.677Z,10.8
2022-11-03T02:02:01.395Z,10.8
2022-11-03T02:03:01.857Z,10.8
2022-11-03T02:04:01.430Z,10.8
2022-11-03T02:05:01.021Z,10.9
2022-11-03T02:06:01.577Z,10.8
2022-11-03T02:07:01.151Z,10.8
2022-11-03T02:08:01.766Z,10.9
2022-11-03T02:09:01.386Z,10.8
2022-11-03T02:10:01.944Z,10.8
2022-11-03T02:11:01.572Z,10.8
2022-11-03T02:12:01.169Z,10.8
2022-11-03T02:13:01.717Z,10.8
2022-11-03T02:14:01.308Z,10.8
2022-11-03T02:15:01.875Z,10.8
2022-11-03T02:16:01.496Z,10.8
2022-11-03T02:17:01.041Z,10.8
2022-11-03T02:18:01.617Z,10.7
2022-11-03T02:19:01.193Z,10.7
2022-11-03T02:20:01.766Z,10.7
2022-11-03T02:21:01.360Z,10.7
2022-11-03T02:22:01.927Z,10.7
2022-11-03T02:23:01.504Z,10.8
2022-11-03T02:24:01.077Z,10.7
2022-11-03T02:25:01.651Z,10.8
2022-11-03T02:26:01.241Z,10.8
2022-11-03T02:27:01.799Z,10.8
2022-11-03T02:28:01.379Z,10.8
2022-11-03T02:29:01.955Z,10.8
2022-11-03T02:30:01.537Z,10.8
2022-11-03T02:31:01.136Z,10.8
2022-11-03T02:32:01.723Z,10.7
2022-11-03T02:33:01.300Z,10.7
2022-11-03T02:34:01.872Z,10.8
2022-11-03T02:35:01.446Z,10.8
2022-11-03T02:36:01.037Z,10.8
2022-11-03T02:37:01.625Z,10.8
2022-11-03T02:38:01.201Z,10.7
2022-11-03T02:39:01.780Z,10.7
2022-11-03T02:40:01.356Z,10.7
2022-11-03T02:41:01.930Z,10.7
2022-11-03T02:42:01.533Z,10.7
2022-11-03T02:43:01.115Z,10.7
2022-11-03T02:44:01.691Z,10.7
2022-11-03T02:45:01.271Z,10.7
2022-11-03T02:46:01.844Z,10.7
2022-11-03T02:47:01.436Z,10.7
2022-11-03T02:48:01.024Z,10.7
2022-11-03T02:49:01.577Z,10.7
2022-11-03T02:50:01.153Z,10.8
2022-11-03T02:51:01.727Z,10.8
2022-11-03T02:52:01.314Z,10.8
2022-11-03T02:53:01.890Z,10.7
2022-11-03T02:54:01.465Z,10.7
2022-11-03T02:55:01.049Z,10.7
2022-11-03T02:56:01.622Z,10.8
2022-11-03T02:57:01.196Z,10.7
2022-11-03T02:58:01.790Z,10.6
2022-11-03T02:59:01.370Z,10.7
2022-11-03T03:00:01.956Z,10.7
2022-11-03T03:01:01.603Z,10.7
2022-11-03T03:02:01.350Z,10.7
2022-11-03T03:03:01.796Z,10.7
2022-11-03T03:04:01.414Z,10.7
2022-11-03T03:05:01.947Z,10.7
2022-11-03T03:06:01.527Z,10.7
2022-11-03T03:07:01.114Z,10.7
2022-11-03T03:08:01.709Z,10.7
2022-11-03T03:09:01.284Z,10.6
2022-11-03T03:10:01.859Z,10.7
2022-11-03T03:11:01.482Z,10.7
2022-11-03T03:12:01.009Z,10.7
2022-11-03T03:13:01.607Z,10.7
2022-11-03T03:14:01.181Z,10.7
2022-11-03T03:15:01.755Z,10.7
2022-11-03T03:16:01.330Z,10.7
2022-11-03T03:17:01.902Z,10.7
2022-11-03T03:18:01.496Z,10.7
2022-11-03T03:19:01.108Z,10.7
2022-11-03T03:20:01.685Z,10.8
2022-11-03T03:21:01.261Z,10.7
2022-11-03T03:22:01.835Z,10.7
2022-11-03T03:23:01.454Z,10.7
2022-11-03T03:24:00.986Z,10.8
2022-11-03T03:25:01.562Z,10.8
2022-11-03T03:26:01.138Z,10.8
2022-11-03T03:27:01.719Z,10.7
2022-11-03T03:28:01.316Z,10.8
2022-11-03T03:29:01.881Z,10.8
2022-11-03T03:30:01.454Z,10.7
2022-11-03T03:31:01.045Z,10.7
2022-11-03T03:32:01.614Z,10.7
2022-11-03T03:33:01.216Z,10.7
2022-11-03T03:34:04.671Z,10.8
2022-11-03T03:35:01.310Z,10.8
2022-11-03T03:36:01.908Z,10.8
2022-11-03T03:37:01.481Z,10.8
2022-11-03T03:38:01.071Z,10.8
2022-11-03T03:39:01.643Z,10.8
2022-11-03T03:40:01.233Z,10.8
2022-11-03T03:41:03.454Z,10.8
2022-11-03T03:42:01.341Z,10.8
2022-11-03T03:43:01.915Z,10.8
2022-11-03T03:44:01.506Z,10.7
2022-11-03T03:45:01.098Z,10.8
2022-11-03T03:46:01.651Z,10.8
2022-11-03T03:47:01.229Z,10.8
2022-11-03T03:48:01.801Z,10.8
2022-11-03T03:49:01.386Z,10.8
2022-11-03T03:50:01.990Z,10.8
2022-11-03T03:51:01.570Z,10.8
2022-11-03T03:52:01.171Z,10.8
2022-11-03T03:53:01.729Z,10.9
2022-11-03T03:54:01.311Z,10.9
2022-11-03T03:55:01.911Z,10.8
2022-11-03T03:56:01.488Z,10.8
2022-11-03T03:57:01.070Z,10.9
2022-11-03T03:58:01.639Z,10.8
2022-11-03T03:59:01.212Z,10.8
2022-11-03T04:00:01.806Z,10.8
2022-11-03T04:01:01.424Z,10.9
2022-11-03T04:02:02.057Z,10.9
2022-11-03T04:03:01.688Z,10.8
2022-11-03T04:04:01.199Z,10.9
2022-11-03T04:05:01.798Z,10.9
2022-11-03T04:06:01.373Z,10.9
2022-11-03T04:07:01.945Z,10.9
2022-11-03T04:08:01.550Z,10.9
2022-11-03T04:09:01.131Z,10.9
2022-11-03T04:10:01.725Z,10.9
2022-11-03T04:11:01.299Z,10.9
2022-11-03T04:12:01.931Z,10.9
2022-11-03T04:13:01.506Z,10.9
2022-11-03T04:14:01.080Z,10.9
2022-11-03T04:15:01.672Z,10.8
2022-11-03T04:16:01.247Z,10.9
2022-11-03T04:17:01.821Z,10.8
2022-11-03T04:18:01.399Z,10.8
2022-11-03T04:19:01.966Z,10.8
2022-11-03T04:20:01.571Z,10.8
2022-11-03T04:21:01.200Z,10.9
2022-11-03T04:22:01.772Z,10.9
2022-11-03T04:23:01.347Z,10.9
2022-11-03T04:24:01.950Z,10.9
2022-11-03T04:25:01.542Z,10.9
2022-11-03T04:26:01.117Z,10.8
2022-11-03T04:27:01.715Z,10.8
2022-11-03T04:28:01.305Z,10.9
2022-11-03T04:29:01.874Z,10.9
2022-11-03T04:30:01.466Z,10.9
2022-11-03T04:31:01.033Z,10.9
2022-11-03T04:32:01.608Z,10.9
2022-11-03T04:33:01.197Z,10.9
2022-11-03T04:34:01.761Z,11
2022-11-03T04:35:01.335Z,11
2022-11-03T04:36:01.909Z,11
2022-11-03T04:37:01.485Z,11
2022-11-03T04:38:01.081Z,10.9
2022-11-03T04:39:01.649Z,10.9
2022-11-03T04:40:01.330Z,11
2022-11-03T04:41:01.886Z,11
2022-11-03T04:42:01.534Z,11
2022-11-03T04:43:01.131Z,11
2022-11-03T04:44:01.699Z,11
2022-11-03T04:45:01.284Z,11
2022-11-03T04:46:01.857Z,11
2022-11-03T04:47:01.433Z,11.1
2022-11-03T04:48:01.025Z,11.1
2022-11-03T04:49:01.603Z,11.1
2022-11-03T04:50:01.179Z,11.2
2022-11-03T04:51:01.765Z,11.1
2022-11-03T04:52:01.340Z,11.2
2022-11-03T04:53:01.932Z,11.2
2022-11-03T04:54:01.511Z,11.1
2022-11-03T04:55:01.103Z,11.1
2022-11-03T04:56:07.099Z,11.1
2022-11-03T04:57:01.214Z,11.1
2022-11-03T04:58:01.813Z,11.1
2022-11-03T04:59:01.391Z,11.1
2022-11-03T05:00:01.968Z,11.1
2022-11-03T05:01:01.625Z,11.1
2022-11-03T05:02:01.401Z,11.1
2022-11-03T05:03:01.795Z,11.1
2022-11-03T05:04:01.370Z,11.1
2022-11-03T05:05:01.944Z,11.1
2022-11-03T05:06:01.519Z,11.1
2022-11-03T05:07:01.094Z,11.1
2022-11-03T05:08:01.687Z,11.1
2022-11-03T05:09:01.263Z,11.2
2022-11-03T05:10:01.836Z,11.1
2022-11-03T05:11:01.429Z,11.1
2022-11-03T05:12:01.011Z,11.1
2022-11-03T05:13:01.623Z,11.1
2022-11-03T05:14:01.196Z,11.1
2022-11-03T05:15:01.770Z,11.1
2022-11-03T05:16:01.362Z,11.1
2022-11-03T05:17:01.918Z,11.1
2022-11-03T05:18:01.499Z,11
2022-11-03T05:19:01.073Z,11.1
2022-11-03T05:20:01.649Z,11
2022-11-03T05:21:01.242Z,11.1
2022-11-03T05:22:01.801Z,11
2022-11-03T05:23:01.375Z,11
2022-11-03T05:24:02.067Z,11
2022-11-03T05:25:01.695Z,11.1
2022-11-03T05:26:01.215Z,11
2022-11-03T05:27:01.785Z,11.1
2022-11-03T05:28:01.381Z,11.1
2022-11-03T05:29:01.939Z,11.1
2022-11-03T05:30:01.595Z,11.1
2022-11-03T05:31:01.191Z,11.2
2022-11-03T05:32:01.760Z,11.2
2022-11-03T05:33:01.334Z,11.2
2022-11-03T05:34:01.906Z,11.2
2022-11-03T05:35:01.487Z,11.2
2022-11-03T05:36:01.074Z,11.2
2022-11-03T05:37:01.629Z,11.2
2022-11-03T05:38:01.218Z,11.3
2022-11-03T05:39:01.793Z,11.3
2022-11-03T05:40:01.387Z,11.3
2022-11-03T05:41:01.944Z,11.3
2022-11-03T05:42:01.521Z,11.3
2022-11-03T05:43:01.101Z,11.3
2022-11-03T05:44:01.722Z,11.3
2022-11-03T05:45:01.318Z,11.3
2022-11-03T05:46:01.914Z,11.3
2022-11-03T05:47:03.070Z,11.3
2022-11-03T05:48:01.059Z,11.3
2022-11-03T05:49:01.634Z,11.4
2022-11-03T05:50:01.236Z,11.3
2022-11-03T05:51:01.786Z,11.3
2022-11-03T05:52:01.362Z,11.3
2022-11-03T05:53:01.934Z,11.3
2022-11-03T05:54:01.506Z,11.3
2022-11-03T05:55:01.099Z,11.4
2022-11-03T05:56:01.666Z,11.4
2022-11-03T05:57:01.256Z,11.4
2022-11-03T05:58:01.832Z,11.3
2022-11-03T05:59:01.407Z,11.4
2022-11-03T06:00:02.031Z,11.3
2022-11-03T06:01:01.612Z,11.4
2022-11-03T06:02:01.392Z,11.3
2022-11-03T06:03:01.828Z,11.3
2022-11-03T06:04:01.422Z,11.3
2022-11-03T06:05:00.999Z,11.3
2022-11-03T06:06:01.588Z,11.3
2022-11-03T06:07:01.161Z,11.3
2022-11-03T06:08:01.735Z,11.3
2022-11-03T06:09:01.307Z,11.3
2022-11-03T06:10:01.884Z,11.3
2022-11-03T06:11:01.482Z,11.4
2022-11-03T06:12:01.040Z,11.3
2022-11-03T06:13:01.667Z,11.3
2022-11-03T06:14:01.245Z,11.4
2022-11-03T06:15:01.823Z,11.3
2022-11-03T06:16:01.438Z,11.3
2022-11-03T06:17:02.010Z,11.4
2022-11-03T06:18:01.651Z,11.4
2022-11-03T06:19:01.207Z,11.4
2022-11-03T06:20:01.782Z,11.5
2022-11-03T06:21:01.363Z,11.5
2022-11-03T06:22:01.956Z,11.5
2022-11-03T06:23:01.528Z,11.5
2022-11-03T06:24:01.111Z,11.5
2022-11-03T06:25:01.685Z,11.5
2022-11-03T06:26:01.261Z,11.5
2022-11-03T06:27:01.859Z,11.5
2022-11-03T06:28:01.437Z,11.5
2022-11-03T06:29:01.013Z,11.6
2022-11-03T06:30:01.618Z,11.5
2022-11-03T06:31:01.203Z,11.5
2022-11-03T06:32:01.820Z,11.6
2022-11-03T06:33:01.397Z,11.6
2022-11-03T06:34:01.970Z,11.6
2022-11-03T06:35:01.547Z,11.6
2022-11-03T06:36:01.133Z,11.6
2022-11-03T06:37:01.729Z,11.7
2022-11-03T06:38:01.428Z,11.6
2022-11-03T06:39:01.896Z,11.5
2022-11-03T06:40:01.480Z,11.5
2022-11-03T06:41:01.060Z,11.5
2022-11-03T06:42:01.656Z,11.4
2022-11-03T06:43:01.248Z,11.4
2022-11-03T06:44:01.812Z,11.4
2022-11-03T06:45:01.385Z,11.4
2022-11-03T06:46:01.957Z,11.4
2022-11-03T06:47:01.548Z,11.3
2022-11-03T06:48:01.176Z,11.4
2022-11-03T06:49:01.701Z,11.4
2022-11-03T06:50:01.281Z,11.4
2022-11-03T06:51:01.856Z,11.5
2022-11-03T06:52:01.446Z,11.5
2022-11-03T06:53:01.034Z,11.5
2022-11-03T06:54:01.597Z,11.5
2022-11-03T06:55:01.170Z,11.5
2022-11-03T06:56:01.743Z,11.5
2022-11-03T06:57:01.323Z,11.4
2022-11-03T06:58:01.920Z,11.5
2022-11-03T06:59:01.495Z,11.5
2022-11-03T07:00:20.200Z,11.5
2022-11-03T07:01:03.443Z,11.5
2022-11-03T07:02:01.246Z,11.5
2022-11-03T07:03:01.901Z,11.6
2022-11-03T07:04:01.503Z,11.7
2022-11-03T07:05:01.059Z,11.7
2022-11-03T07:06:01.630Z,11.7
2022-11-03T07:07:01.209Z,11.7
2022-11-03T07:08:01.800Z,11.7
2022-11-03T07:09:01.372Z,11.8
2022-11-03T07:10:01.945Z,11.7
2022-11-03T07:11:01.526Z,11.8
2022-11-03T07:12:01.106Z,11.8
2022-11-03T07:13:05.932Z,11.8
2022-11-03T07:14:01.304Z,11.9
2022-11-03T07:15:01.926Z,11.9
2022-11-03T07:16:01.527Z,11.9
2022-11-03T07:17:01.102Z,11.9
2022-11-03T07:18:01.681Z,11.9
2022-11-03T07:19:01.274Z,12
2022-11-03T07:20:01.865Z,12
2022-11-03T07:21:01.440Z,12.1
2022-11-03T07:22:01.013Z,12.1
2022-11-03T07:23:01.588Z,12.1
2022-11-03T07:24:01.181Z,12.1
2022-11-03T07:25:01.749Z,12.2
2022-11-03T07:26:01.334Z,12.2
2022-11-03T07:27:01.907Z,12.2
2022-11-03T07:28:01.483Z,12.2
2022-11-03T07:29:01.084Z,12.3
2022-11-03T07:30:01.658Z,12.4
2022-11-03T07:31:01.235Z,12.4
2022-11-03T07:32:01.809Z,12.3
2022-11-03T07:33:01.385Z,12.3
2022-11-03T07:34:01.979Z,12.4
2022-11-03T07:35:01.554Z,12.4
2022-11-03T07:36:14.710Z,12.5
2022-11-03T07:37:01.754Z,12.5
2022-11-03T07:38:01.359Z,12.5
2022-11-03T07:39:01.952Z,12.5
2022-11-03T07:40:01.529Z,12.5
2022-11-03T07:41:01.109Z,12.5
2022-11-03T07:42:01.683Z,12.6
2022-11-03T07:43:01.258Z,12.5
2022-11-03T07:44:01.851Z,12.6
2022-11-03T07:45:01.426Z,12.6
2022-11-03T07:46:00.996Z,12.6
2022-11-03T07:47:01.568Z,12.5
2022-11-03T07:48:03.410Z,12.5
2022-11-03T07:49:01.701Z,12.6
2022-11-03T07:50:01.280Z,12.6
2022-11-03T07:51:01.850Z,12.6
2022-11-03T07:52:01.447Z,12.6
2022-11-03T07:53:01.010Z,12.6
2022-11-03T07:54:01.598Z,12.6
2022-11-03T07:55:01.193Z,12.6
2022-11-03T07:56:01.783Z,12.6
2022-11-03T07:57:01.365Z,12.6
2022-11-03T07:58:01.938Z,12.7
2022-11-03T07:59:01.540Z,12.7
2022-11-03T08:00:02.565Z,12.7
2022-11-03T08:01:01.653Z,12.7
2022-11-03T08:02:01.353Z,12.8
2022-11-03T08:03:01.815Z,12.7
2022-11-03T08:04:01.411Z,12.8
2022-11-03T08:05:01.982Z,12.8
2022-11-03T08:06:02.674Z,12.9
2022-11-03T08:07:01.092Z,12.9
2022-11-03T08:08:01.693Z,13
2022-11-03T08:09:01.288Z,13
2022-11-03T08:10:01.856Z,13
2022-11-03T08:11:01.474Z,13
2022-11-03T08:12:01.005Z,13
2022-11-03T08:13:01.585Z,13
2022-11-03T08:14:01.179Z,13.1
2022-11-03T08:15:01.810Z,13.1
2022-11-03T08:16:01.405Z,13.2
2022-11-03T08:17:01.976Z,13.2
2022-11-03T08:18:01.561Z,13.2
2022-11-03T08:19:01.136Z,13.3
2022-11-03T08:20:01.736Z,13.3
2022-11-03T08:21:01.316Z,13.3
2022-11-03T08:22:01.891Z,13.3
2022-11-03T08:23:27.324Z,13.3
2022-11-03T08:24:01.039Z,13.3
2022-11-03T08:25:01.634Z,13.4
2022-11-03T08:26:01.210Z,13.4
2022-11-03T08:27:01.783Z,13.4
2022-11-03T08:28:01.365Z,13.4
2022-11-03T08:29:01.943Z,13.3
2022-11-03T08:30:01.541Z,13.4
2022-11-03T08:31:02.199Z,13.3
2022-11-03T08:32:01.911Z,13.3
2022-11-03T08:33:01.362Z,13.4
2022-11-03T08:34:01.939Z,13.4
2022-11-03T08:35:01.572Z,13.4
2022-11-03T08:36:01.174Z,13.4
2022-11-03T08:37:01.743Z,13.4
2022-11-03T08:38:01.319Z,13.4
2022-11-03T08:39:01.894Z,13.4
2022-11-03T08:40:01.514Z,13.4
2022-11-03T08:41:01.075Z,13.3
2022-11-03T08:42:01.635Z,13.3
2022-11-03T08:43:01.212Z,13.3
2022-11-03T08:44:01.788Z,13.3
2022-11-03T08:45:01.379Z,13.4
2022-11-03T08:46:06.681Z,13.4
2022-11-03T08:47:01.498Z,13.4
2022-11-03T08:48:01.083Z,13.5
2022-11-03T08:49:01.658Z,13.4
2022-11-03T08:50:01.252Z,13.5
2022-11-03T08:51:01.822Z,13.5
2022-11-03T08:52:01.399Z,13.5
2022-11-03T08:53:01.976Z,13.5
2022-11-03T08:54:01.559Z,13.5
2022-11-03T08:55:01.153Z,13.5
2022-11-03T08:56:01.751Z,13.5
2022-11-03T08:57:01.341Z,13.6
2022-11-03T08:58:01.911Z,13.6
2022-11-03T08:59:01.492Z,13.6
2022-11-03T09:00:01.069Z,13.6
2022-11-03T09:01:01.642Z,13.7
2022-11-03T09:02:01.272Z,13.7
2022-11-03T09:03:01.805Z,13.7
2022-11-03T09:04:01.417Z,13.7
2022-11-03T09:05:01.958Z,13.7
2022-11-03T09:06:01.551Z,13.7
2022-11-03T09:07:01.140Z,13.8
2022-11-03T09:11:01.335Z,13.8
2022-11-03T09:12:01.935Z,13.8
2022-11-03T09:13:01.509Z,13.9
2022-11-03T09:14:01.087Z,14
2022-11-03T09:15:01.663Z,14
2022-11-03T09:16:01.302Z,14.1
2022-11-03T09:18:01.390Z,14
2022-11-03T09:19:01.963Z,14.1
2022-11-03T09:20:01.541Z,14.2
2022-11-03T09:21:01.190Z,14.3
2022-11-03T09:22:01.784Z,14.3
2022-11-03T09:23:01.358Z,14.3
2022-11-03T09:24:01.931Z,14.4
2022-11-03T09:25:01.504Z,14.4
2022-11-03T09:26:01.075Z,14.4
2022-11-03T09:27:02.286Z,14.4
2022-11-03T09:28:01.217Z,14.5
2022-11-03T09:29:01.791Z,14.5
2022-11-03T09:30:12.583Z,14.6
2022-11-03T09:31:01.901Z,14.5
2022-11-03T09:32:01.503Z,14.5
2022-11-03T09:33:01.078Z,14.6
2022-11-03T09:34:01.655Z,14.7
2022-11-03T09:35:01.230Z,14.7
2022-11-03T09:36:01.810Z,14.7
2022-11-03T09:37:01.404Z,14.7
2022-11-03T09:38:01.975Z,14.7
2022-11-03T09:39:01.552Z,14.7
2022-11-03T09:40:01.126Z,14.7
2022-11-03T09:41:01.706Z,14.7
2022-11-03T09:42:01.297Z,14.7
2022-11-03T09:43:01.855Z,14.8
2022-11-03T09:44:01.463Z,14.8
2022-11-03T09:45:01.179Z,14.8
2022-11-03T09:46:01.586Z,14.9
2022-11-03T09:47:01.178Z,14.9
2022-11-03T09:48:01.784Z,15
2022-11-03T09:49:01.363Z,14.9
2022-11-03T09:50:01.940Z,14.9
2022-11-03T09:51:01.515Z,15
2022-11-03T09:52:01.090Z,15
2022-11-03T09:53:01.681Z,15.1
2022-11-03T09:54:01.257Z,15
2022-11-03T09:55:01.834Z,15
2022-11-03T09:56:01.410Z,15.1
2022-11-03T09:57:01.986Z,15.1
2022-11-03T09:58:01.581Z,15.1
2022-11-03T09:59:01.173Z,15.2
2022-11-03T10:00:01.777Z,15.1
2022-11-03T10:01:01.399Z,15.1
2022-11-03T10:02:02.045Z,15.1
2022-11-03T10:03:01.683Z,15.1
2022-11-03T10:04:01.191Z,15.1
2022-11-03T10:05:04.374Z,15.2
2022-11-03T10:06:01.312Z,15.2
2022-11-03T10:07:01.887Z,15.2
2022-11-03T10:08:01.460Z,15.2
2022-11-03T10:09:01.050Z,15.3
2022-11-03T10:10:01.629Z,15.3
2022-11-03T10:11:01.211Z,15.3
2022-11-03T10:12:01.786Z,15.3
2022-11-03T10:13:01.359Z,15.3
2022-11-03T10:14:01.942Z,15.2
2022-11-03T10:15:01.513Z,15.2
2022-11-03T10:16:01.149Z,15.3
2022-11-03T10:17:01.659Z,15.3
2022-11-03T10:18:01.235Z,15.3
2022-11-03T10:19:01.828Z,15.3
2022-11-03T10:20:01.413Z,15.2
2022-11-03T10:21:01.988Z,15.2
2022-11-03T10:22:01.563Z,15.3
2022-11-03T10:23:01.137Z,15.4
2022-11-03T10:24:01.718Z,15.4
2022-11-03T10:25:01.306Z,15.4
2022-11-03T10:26:01.876Z,15.4
2022-11-03T10:27:01.456Z,15.5
2022-11-03T10:28:01.036Z,15.5
2022-11-03T10:29:01.614Z,15.6
2022-11-03T10:30:01.214Z,15.6
2022-11-03T10:31:17.279Z,15.5
2022-11-03T10:32:01.343Z,15.4
2022-11-03T10:33:01.917Z,15.5
2022-11-03T10:34:01.492Z,15.5
2022-11-03T10:35:01.086Z,15.4
2022-11-03T10:36:01.642Z,15.3
2022-11-03T10:37:01.223Z,15.3
2022-11-03T10:38:01.800Z,15.3
2022-11-03T10:39:01.375Z,15.4
2022-11-03T10:40:01.972Z,15.4
2022-11-03T10:41:01.549Z,15.3
2022-11-03T10:42:01.136Z,15.3
2022-11-03T10:43:01.705Z,15.3
2022-11-03T10:44:01.280Z,15.3
2022-11-03T10:45:01.873Z,15.3
2022-11-03T10:46:01.449Z,15.3
2022-11-03T10:47:01.020Z,15.3
2022-11-03T10:48:01.635Z,15.3
2022-11-03T10:49:01.232Z,15.3
2022-11-03T10:50:01.822Z,15.3
2022-11-03T10:51:01.397Z,15.4
2022-11-03T10:52:01.986Z,15.4
2022-11-03T10:53:01.567Z,15.3
2022-11-03T10:54:01.144Z,15.3
2022-11-03T10:55:01.723Z,15.4
2022-11-03T10:56:01.311Z,15.4
2022-11-03T10:57:01.906Z,15.4
2022-11-03T10:58:01.503Z,15.5
2022-11-03T10:59:01.108Z,15.5
2022-11-03T11:00:01.656Z,15.5
2022-11-03T11:01:01.309Z,15.5
2022-11-03T11:02:02.067Z,15.6
2022-11-03T11:03:01.472Z,15.5
2022-11-03T11:04:01.104Z,15.6
2022-11-03T11:05:01.639Z,15.6
2022-11-03T11:06:01.215Z,15.6
2022-11-03T11:07:01.806Z,15.7
2022-11-03T11:08:01.432Z,15.7
2022-11-03T11:09:01.970Z,15.6
2022-11-03T11:10:01.545Z,15.7
2022-11-03T11:11:01.122Z,15.7
2022-11-03T11:12:01.706Z,15.6
2022-11-03T11:13:01.308Z,15.6
2022-11-03T11:14:01.868Z,15.7
2022-11-03T11:15:01.444Z,15.7
2022-11-03T11:16:01.015Z,15.7
2022-11-03T11:17:01.642Z,15.7
2022-11-03T11:18:01.243Z,15.6
2022-11-03T11:19:01.805Z,15.6
2022-11-03T11:20:01.413Z,15.7
2022-11-03T11:21:01.971Z,15.6
2022-11-03T11:22:01.551Z,15.5
2022-11-03T11:23:01.150Z,15.5
2022-11-03T11:24:01.714Z,15.5
2022-11-03T11:25:01.288Z,15.5
2022-11-03T11:26:01.862Z,15.4
2022-11-03T11:27:01.435Z,15.5
2022-11-03T11:28:01.025Z,15.5
2022-11-03T11:29:01.599Z,15.5
2022-11-03T11:30:01.174Z,15.5
2022-11-03T11:31:01.748Z,15.5
2022-11-03T11:32:01.321Z,15.5
2022-11-03T11:33:01.900Z,15.6
2022-11-03T11:34:01.492Z,15.7
2022-11-03T11:35:01.061Z,15.8
2022-11-03T11:36:01.660Z,15.9
2022-11-03T11:37:01.246Z,15.8
2022-11-03T11:38:01.821Z,16
2022-11-03T11:39:01.437Z,16.1
2022-11-03T11:40:01.981Z,16.3
2022-11-03T11:41:01.554Z,16.3
2022-11-03T11:42:01.130Z,16.4
2022-11-03T11:43:01.714Z,16.5
2022-11-03T11:44:01.298Z,16.5
2022-11-03T11:45:01.870Z,16.6
2022-11-03T11:46:01.443Z,16.7
2022-11-03T11:47:01.015Z,16.8
2022-11-03T11:48:01.601Z,16.9
2022-11-03T11:49:01.176Z,16.8
2022-11-03T11:50:01.767Z,16.8
2022-11-03T11:51:01.341Z,16.9
2022-11-03T11:52:01.964Z,16.9
2022-11-03T11:53:01.540Z,17.1
2022-11-03T11:54:16.975Z,17
2022-11-03T11:55:01.667Z,17.1
2022-11-03T11:56:01.243Z,17
2022-11-03T11:57:01.817Z,17.1
2022-11-03T11:58:01.407Z,17
2022-11-03T11:59:01.961Z,17.1
2022-11-03T12:00:01.539Z,17.1
2022-11-03T12:01:01.134Z,17.1
2022-11-03T12:02:01.732Z,17.1
2022-11-03T12:03:01.419Z,17.1
2022-11-03T12:04:02.066Z,17
2022-11-03T12:05:01.700Z,17
2022-11-03T12:06:01.192Z,17
2022-11-03T12:07:01.758Z,17
2022-11-03T12:08:01.357Z,17
2022-11-03T12:09:01.919Z,17
2022-11-03T12:10:01.513Z,17.1
2022-11-03T12:11:01.124Z,17
2022-11-03T12:12:06.984Z,16.9
2022-11-03T12:13:01.189Z,16.9
2022-11-03T12:14:01.886Z,16.9
2022-11-03T12:15:01.472Z,16.7
2022-11-03T12:16:01.069Z,16.8
2022-11-03T12:17:01.677Z,16.8
2022-11-03T12:18:01.251Z,16.8
2022-11-03T12:19:01.826Z,16.8
2022-11-03T12:20:01.402Z,16.8
2022-11-03T12:21:02.001Z,16.9
2022-11-03T12:22:01.596Z,17
2022-11-03T12:23:01.171Z,16.9
2022-11-03T12:24:01.774Z,16.7
2022-11-03T12:25:01.359Z,16.5
2022-11-03T12:26:01.938Z,16.3
2022-11-03T12:27:01.551Z,16.3
2022-11-03T12:28:01.124Z,16.2
2022-11-03T12:29:01.708Z,16.2
2022-11-03T12:30:01.289Z,16.1
2022-11-03T12:31:01.863Z,16
2022-11-03T12:32:01.463Z,16
2022-11-03T12:33:01.025Z,16
2022-11-03T12:34:01.599Z,16
2022-11-03T12:35:01.172Z,16.1
2022-11-03T12:36:01.749Z,16
2022-11-03T12:37:01.418Z,16.1
2022-11-03T12:38:01.992Z,16.1
2022-11-03T12:39:01.594Z,16.2
2022-11-03T12:40:01.190Z,16.2
2022-11-03T12:41:01.751Z,16.3
2022-11-03T12:42:01.348Z,16.2
2022-11-03T12:43:01.914Z,16.3
2022-11-03T12:44:01.543Z,16.2
2022-11-03T12:45:01.092Z,16.1
2022-11-03T12:46:01.654Z,16.2
2022-11-03T12:47:01.250Z,16.3
2022-11-03T12:48:01.822Z,16.2
2022-11-03T12:49:01.399Z,16.2
2022-11-03T12:50:01.973Z,16.2
2022-11-03T12:51:01.546Z,16.2
2022-11-03T12:52:05.332Z,16.1
2022-11-03T12:53:01.674Z,16.2
2022-11-03T12:54:01.249Z,16.2
2022-11-03T12:55:01.822Z,16.2
2022-11-03T12:56:01.456Z,16.2
2022-11-03T12:57:01.994Z,16.2
2022-11-03T12:58:01.570Z,16.3
2022-11-03T12:59:01.148Z,16.5
2022-11-03T13:00:01.736Z,16.6
2022-11-03T13:01:01.972Z,16.7
2022-11-03T13:02:01.962Z,16.7
2022-11-03T13:03:01.561Z,16.9
2022-11-03T13:04:01.136Z,17
2022-11-03T13:05:01.708Z,17
2022-11-03T13:06:01.294Z,17
2022-11-03T13:07:01.864Z,17
2022-11-03T13:08:01.441Z,16.9
2022-11-03T13:09:01.031Z,16.8
2022-11-03T13:10:01.609Z,16.8
2022-11-03T13:11:01.196Z,16.7
2022-11-03T13:12:01.798Z,16.8
2022-11-03T13:13:01.390Z,16.7
2022-11-03T13:14:01.970Z,16.6
2022-11-03T13:15:01.549Z,16.4
2022-11-03T13:16:01.122Z,16.4
2022-11-03T13:17:01.694Z,16.3
2022-11-03T13:18:16.582Z,16.3
2022-11-03T13:19:01.864Z,16.2
2022-11-03T13:20:01.510Z,16.3
2022-11-03T13:21:01.024Z,16.2
2022-11-03T13:22:01.595Z,16.3
2022-11-03T13:23:01.184Z,16.3
2022-11-03T13:24:01.764Z,16.2
2022-11-03T13:25:01.335Z,16.2
2022-11-03T13:26:01.999Z,16.1
2022-11-03T13:27:01.572Z,16